Time,TemperatureF,DewpointF,PressureIn,WindDirection,WindDirectionDegrees,WindSpeedMPH,WindSpeedGustMPH,Humidity,HourlyPrecipIn,Conditions,Clouds,dailyrainin,SoftwareType,DateUTC
2013-08-11 00:00:00,54.8,52.5,30.34,SSW,209,3.0,3.0,92,0.00,,,0.00,Wunderground v.1.15,2013-08-11 04:00:00,
2013-08-11 00:05:00,54.8,52.5,30.34,SSW,209,4.0,4.0,92,0.00,,,0.00,Wunderground v.1.15,2013-08-11 04:05:00,
2013-08-11 00:15:00,54.7,52.4,30.34,SSW,209,2.0,3.0,92,0.00,,,0.00,Wunderground v.1.15,2013-08-11 04:15:00,
2013-08-11 00:20:00,54.5,52.2,30.34,SSW,209,2.0,2.0,92,0.00,,,0.00,Wunderground v.1.15,2013-08-11 04:20:00,
2013-08-11 00:25:00,54.4,52.1,30.34,SSW,209,2.0,2.0,92,0.00,,,0.00,Wunderground v.1.15,2013-08-11 04:25:00,
2013-08-11 00:30:00,54.4,52.1,30.34,SSW,209,2.0,3.0,92,0.00,,,0.00,Wunderground v.1.15,2013-08-11 04:30:00,
2013-08-11 00:35:00,54.2,51.9,30.34,SSW,209,2.0,4.0,92,0.00,,,0.00,Wunderground v.1.15,2013-08-11 04:35:00,
2013-08-11 00:45:00,54.3,52.3,30.34,SSW,209,1.0,3.0,93,0.00,,,0.00,Wunderground v.1.15,2013-08-11 04:45:00,
2013-08-11 00:50:00,54.5,52.5,30.34,SSW,209,2.0,3.0,93,0.00,,,0.00,Wunderground v.1.15,2013-08-11 04:50:00,
2013-08-11 00:55:00,54.7,52.7,30.34,SSW,209,2.0,3.0,93,0.00,,,0.00,Wunderground v.1.15,2013-08-11 04:55:00,
2013-08-11 01:00:00,54.9,52.9,30.34,SSW,209,2.0,2.0,93,0.00,,,0.00,Wunderground v.1.15,2013-08-11 05:00:00,
2013-08-11 01:05:00,55.0,53.0,30.34,SSW,209,2.0,6.0,93,0.00,,,0.00,Wunderground v.1.15,2013-08-11 05:05:00,
2013-08-11 01:10:00,55.0,52.7,30.34,SSW,209,3.0,6.0,92,0.00,,,0.00,Wunderground v.1.15,2013-08-11 05:10:00,
2013-08-11 01:20:00,55.0,52.7,30.34,SSW,209,2.0,2.0,92,0.00,,,0.00,Wunderground v.1.15,2013-08-11 05:20:00,
2013-08-11 01:25:00,55.0,52.7,30.34,SSW,209,2.0,3.0,92,0.00,,,0.00,Wunderground v.1.15,2013-08-11 05:25:00,
2013-08-11 01:30:00,55.1,52.8,30.34,SSW,209,3.0,3.0,92,0.00,,,0.00,Wunderground v.1.15,2013-08-11 05:30:00,
2013-08-11 01:35:00,55.3,53.0,30.34,SSW,209,3.0,6.0,92,0.00,,,0.00,Wunderground v.1.15,2013-08-11 05:35:00,
2013-08-11 01:40:00,55.3,53.0,30.35,SSW,209,2.0,6.0,92,0.00,,,0.00,Wunderground v.1.15,2013-08-11 05:40:00,
2013-08-11 01:45:00,55.4,53.1,30.34,SSW,209,2.0,6.0,92,0.00,,,0.00,Wunderground v.1.15,2013-08-11 05:45:00,
2013-08-11 01:50:00,55.6,53.3,30.35,SSW,209,2.0,6.0,92,0.00,,,0.00,Wunderground v.1.15,2013-08-11 05:50:00,
2013-08-11 02:00:00,55.8,53.5,30.35,SSW,209,3.0,3.0,92,0.00,,,0.00,Wunderground v.1.15,2013-08-11 06:00:00,
2013-08-11 02:10:00,55.8,53.2,30.35,SSW,209,1.0,6.0,91,0.00,,,0.00,Wunderground v.1.15,2013-08-11 06:10:00,
2013-08-11 02:15:00,55.9,53.3,30.35,SSW,209,1.0,6.0,91,0.00,,,0.00,Wunderground v.1.15,2013-08-11 06:15:00,
2013-08-11 02:20:00,55.9,53.3,30.35,SSW,209,2.0,6.0,91,0.00,,,0.00,Wunderground v.1.15,2013-08-11 06:20:00,
2013-08-11 02:25:00,55.8,53.2,30.35,SSW,209,2.0,6.0,91,0.00,,,0.00,Wunderground v.1.15,2013-08-11 06:25:00,
2013-08-11 02:35:00,55.8,53.2,30.35,SSW,209,1.0,6.0,91,0.00,,,0.00,Wunderground v.1.15,2013-08-11 06:35:00,
2013-08-11 02:40:00,55.8,53.2,30.35,SSW,209,1.0,6.0,91,0.00,,,0.00,Wunderground v.1.15,2013-08-11 06:40:00,
2013-08-11 02:45:00,55.9,53.3,30.35,SSW,209,2.0,6.0,91,0.00,,,0.00,Wunderground v.1.15,2013-08-11 06:45:00,
2013-08-11 02:50:00,56.0,53.4,30.35,SSW,209,2.0,6.0,91,0.00,,,0.00,Wunderground v.1.15,2013-08-11 06:50:00,
2013-08-11 03:00:00,56.0,53.4,30.35,SSW,209,1.0,6.0,91,0.00,,,0.00,Wunderground v.1.15,2013-08-11 07:00:00,
2013-08-11 03:10:00,56.1,53.2,30.35,SSW,209,2.0,6.0,90,0.00,,,0.00,Wunderground v.1.15,2013-08-11 07:10:00,
2013-08-11 03:15:00,56.1,53.2,30.35,SSW,209,3.0,6.0,90,0.00,,,0.00,Wunderground v.1.15,2013-08-11 07:15:00,
2013-08-11 03:20:00,56.1,53.2,30.35,SSW,211,2.0,6.0,90,0.00,,,0.00,Wunderground v.1.15,2013-08-11 07:20:00,
2013-08-11 03:25:00,56.0,53.1,30.35,SSW,211,2.0,6.0,90,0.00,,,0.00,Wunderground v.1.15,2013-08-11 07:25:00,
2013-08-11 03:30:00,55.8,52.9,30.35,SSW,211,2.0,2.0,90,0.00,,,0.00,Wunderground v.1.15,2013-08-11 07:30:00,
2013-08-11 03:40:00,55.3,52.4,30.35,SSW,211,1.0,6.0,90,0.00,,,0.00,Wunderground v.1.15,2013-08-11 07:40:00,
2013-08-11 03:45:00,55.3,52.7,30.35,SSW,211,2.0,6.0,91,0.00,,,0.00,Wunderground v.1.15,2013-08-11 07:45:00,
2013-08-11 03:50:00,55.3,52.7,30.35,SSW,211,2.0,6.0,91,0.00,,,0.00,Wunderground v.1.15,2013-08-11 07:50:00,
2013-08-11 03:55:00,55.2,52.6,30.35,SSW,211,3.0,6.0,91,0.00,,,0.00,Wunderground v.1.15,2013-08-11 07:55:00,
2013-08-11 04:05:00,54.9,52.6,30.35,SSW,211,3.0,6.0,92,0.00,,,0.01,Wunderground v.1.15,2013-08-11 08:05:00,
2013-08-11 04:10:00,54.8,52.5,30.35,SSW,213,3.0,6.0,92,0.00,,,0.01,Wunderground v.1.15,2013-08-11 08:10:00,
2013-08-11 04:15:00,54.7,52.4,30.35,SSW,213,3.0,6.0,92,0.00,,,0.01,Wunderground v.1.15,2013-08-11 08:15:00,
2013-08-11 04:20:00,54.6,52.3,30.35,SSW,213,3.0,6.0,92,0.00,,,0.01,Wunderground v.1.15,2013-08-11 08:20:00,
2013-08-11 04:30:00,54.4,52.1,30.35,SSW,213,3.0,3.0,92,0.00,,,0.01,Wunderground v.1.15,2013-08-11 08:30:00,
2013-08-11 04:35:00,54.3,52.3,30.35,SSW,213,3.0,6.0,93,0.00,,,0.01,Wunderground v.1.15,2013-08-11 08:35:00,
2013-08-11 04:40:00,54.3,52.3,30.35,SSW,213,3.0,6.0,93,0.00,,,0.01,Wunderground v.1.15,2013-08-11 08:40:00,
2013-08-11 04:45:00,54.1,52.1,30.35,SSW,213,3.0,6.0,93,0.00,,,0.01,Wunderground v.1.15,2013-08-11 08:45:00,
2013-08-11 04:55:00,54.0,52.0,30.35,SSW,212,4.0,6.0,93,0.00,,,0.01,Wunderground v.1.15,2013-08-11 08:55:00,
2013-08-11 05:00:00,53.9,51.9,30.35,SSW,212,3.0,6.0,93,0.00,,,0.01,Wunderground v.1.15,2013-08-11 09:00:00,
2013-08-11 05:10:00,53.7,52.0,30.35,SSW,212,3.0,3.0,94,0.00,,,0.01,Wunderground v.1.15,2013-08-11 09:10:00,
2013-08-11 05:15:00,53.5,51.8,30.35,SSW,212,3.0,6.0,94,0.00,,,0.01,Wunderground v.1.15,2013-08-11 09:15:00,
2013-08-11 05:25:00,53.2,51.5,30.35,SSW,212,2.0,6.0,94,0.00,,,0.01,Wunderground v.1.15,2013-08-11 09:25:00,
2013-08-11 05:30:00,53.0,51.3,30.35,SSW,212,2.0,6.0,94,0.00,,,0.01,Wunderground v.1.15,2013-08-11 09:30:00,
2013-08-11 05:40:00,52.6,50.9,30.35,SSW,212,1.0,1.0,94,0.00,,,0.01,Wunderground v.1.15,2013-08-11 09:40:00,
2013-08-11 05:45:00,52.5,50.8,30.35,SSW,212,0.0,6.0,94,0.00,,,0.01,Wunderground v.1.15,2013-08-11 09:45:00,
2013-08-11 05:55:00,52.2,50.8,30.36,SSW,212,1.0,6.0,95,0.00,,,0.01,Wunderground v.1.15,2013-08-11 09:55:00,
2013-08-11 06:05:00,52.1,50.7,30.36,SSW,212,1.0,2.0,95,0.00,,,0.01,Wunderground v.1.15,2013-08-11 10:05:00,
2013-08-11 06:10:00,51.9,50.5,30.36,SSW,212,2.0,2.0,95,0.00,,,0.01,Wunderground v.1.15,2013-08-11 10:10:00,
2013-08-11 06:15:00,51.8,50.4,30.36,SSW,212,1.0,2.0,95,0.00,,,0.01,Wunderground v.1.15,2013-08-11 10:15:00,
2013-08-11 06:20:00,51.8,50.4,30.36,SSW,212,1.0,2.0,95,0.00,,,0.01,Wunderground v.1.15,2013-08-11 10:20:00,
2013-08-11 06:25:00,51.8,50.4,30.36,SSW,212,1.0,2.0,95,0.00,,,0.01,Wunderground v.1.15,2013-08-11 10:25:00,
2013-08-11 06:30:00,51.8,50.4,30.36,SSW,212,1.0,1.0,95,0.00,,,0.01,Wunderground v.1.15,2013-08-11 10:30:00,
2013-08-11 06:40:00,52.1,51.0,30.37,SSW,212,1.0,1.0,96,0.00,,,0.01,Wunderground v.1.15,2013-08-11 10:40:00,
2013-08-11 06:45:00,52.4,51.3,30.37,SSW,212,1.0,1.0,96,0.00,,,0.01,Wunderground v.1.15,2013-08-11 10:45:00,
2013-08-11 06:50:00,52.6,51.5,30.37,SSW,212,1.0,1.0,96,0.00,,,0.01,Wunderground v.1.15,2013-08-11 10:50:00,
2013-08-11 06:55:00,52.7,51.6,30.37,SSW,212,0.0,1.0,96,0.00,,,0.01,Wunderground v.1.15,2013-08-11 10:55:00,
2013-08-11 07:00:00,52.9,51.8,30.37,SSW,212,0.0,0.0,96,0.00,,,0.01,Wunderground v.1.15,2013-08-11 11:00:00,
2013-08-11 07:10:00,53.5,52.4,30.37,SSW,212,0.0,3.0,96,0.00,,,0.01,Wunderground v.1.15,2013-08-11 11:10:00,
2013-08-11 07:15:00,53.9,52.8,30.38,SSW,212,0.0,3.0,96,0.00,,,0.01,Wunderground v.1.15,2013-08-11 11:15:00,
2013-08-11 07:20:00,54.4,53.3,30.38,SSW,212,1.0,1.0,96,0.00,,,0.01,Wunderground v.1.15,2013-08-11 11:20:00,
2013-08-11 07:25:00,54.8,53.7,30.38,SSW,212,1.0,2.0,96,0.00,,,0.01,Wunderground v.1.15,2013-08-11 11:25:00,
2013-08-11 07:35:00,55.6,54.5,30.37,SSW,212,2.0,3.0,96,0.00,,,0.01,Wunderground v.1.15,2013-08-11 11:35:00,
2013-08-11 07:45:00,56.3,54.9,30.37,SSW,212,1.0,3.0,95,0.00,,,0.01,Wunderground v.1.15,2013-08-11 11:45:00,
2013-08-11 07:50:00,56.9,55.5,30.37,SSW,212,2.0,2.0,95,0.00,,,0.01,Wunderground v.1.15,2013-08-11 11:50:00,
2013-08-11 07:55:00,57.4,56.0,30.38,SSW,212,2.0,3.0,95,0.00,,,0.01,Wunderground v.1.15,2013-08-11 11:55:00,
2013-08-11 08:00:00,57.9,56.2,30.38,SSW,212,2.0,3.0,94,0.00,,,0.01,Wunderground v.1.15,2013-08-11 12:00:00,
2013-08-11 08:05:00,58.4,56.7,30.38,SSW,212,2.0,3.0,94,0.00,,,0.01,Wunderground v.1.15,2013-08-11 12:05:00,
2013-08-11 08:15:00,59.6,57.6,30.38,SSW,212,2.0,3.0,93,0.00,,,0.01,Wunderground v.1.15,2013-08-11 12:15:00,
2013-08-11 08:25:00,60.7,58.1,30.38,SSW,212,2.0,3.0,91,0.00,,,0.01,Wunderground v.1.15,2013-08-11 12:25:00,
2013-08-11 08:30:00,61.2,58.2,30.38,SSW,212,2.0,2.0,90,0.00,,,0.01,Wunderground v.1.15,2013-08-11 12:30:00,
2013-08-11 08:35:00,61.8,58.2,30.38,WNW,297,2.0,3.0,88,0.00,,,0.01,Wunderground v.1.15,2013-08-11 12:35:00,
2013-08-11 08:40:00,61.9,58.0,30.38,NW,311,3.0,3.0,87,0.00,,,0.01,Wunderground v.1.15,2013-08-11 12:40:00,
2013-08-11 08:50:00,62.3,57.7,30.38,WNW,301,4.0,4.0,85,0.00,,,0.01,Wunderground v.1.15,2013-08-11 12:50:00,
2013-08-11 08:55:00,62.6,57.7,30.38,WNW,301,4.0,4.0,84,0.00,,,0.01,Wunderground v.1.15,2013-08-11 12:55:00,
2013-08-11 09:00:00,63.1,58.2,30.38,WNW,301,3.0,3.0,84,0.00,,,0.01,Wunderground v.1.15,2013-08-11 13:00:00,
2013-08-11 09:10:00,63.5,57.6,30.38,NNW,327,4.0,6.0,81,0.00,,,0.01,Wunderground v.1.15,2013-08-11 13:10:00,
2013-08-11 09:15:00,63.8,57.2,30.38,NW,311,4.0,6.0,79,0.00,,,0.01,Wunderground v.1.15,2013-08-11 13:15:00,
2013-08-11 09:20:00,64.1,57.5,30.38,NNW,331,3.0,5.0,79,0.00,,,0.01,Wunderground v.1.15,2013-08-11 13:20:00,
2013-08-11 09:35:00,65.3,57.9,30.38,NNE,19,3.0,5.0,77,0.00,,,0.01,Wunderground v.1.15,2013-08-11 13:35:00,
2013-08-11 09:40:00,65.6,57.8,30.38,NNW,327,3.0,3.0,76,0.00,,,0.01,Wunderground v.1.15,2013-08-11 13:40:00,
2013-08-11 09:45:00,65.4,58.0,30.38,NNW,327,2.0,3.0,77,0.00,,,0.01,Wunderground v.1.15,2013-08-11 13:45:00,
2013-08-11 09:50:00,65.7,57.6,30.38,NNW,329,2.0,3.0,75,0.00,,,0.01,Wunderground v.1.15,2013-08-11 13:50:00,
2013-08-11 09:55:00,65.7,57.2,30.38,NNW,329,2.0,3.0,74,0.00,,,0.01,Wunderground v.1.15,2013-08-11 13:55:00,
2013-08-11 10:05:00,66.4,58.2,30.38,NNW,329,1.0,3.0,75,0.00,,,0.01,Wunderground v.1.15,2013-08-11 14:05:00,
2013-08-11 10:10:00,66.7,55.8,30.38,NW,313,2.0,3.0,68,0.00,,,0.01,Wunderground v.1.15,2013-08-11 14:10:00,
2013-08-11 10:15:00,66.4,55.9,30.38,NW,313,3.0,3.0,69,0.00,,,0.01,Wunderground v.1.15,2013-08-11 14:15:00,
2013-08-11 10:20:00,66.6,54.5,30.38,NW,313,2.0,2.0,65,0.00,,,0.01,Wunderground v.1.15,2013-08-11 14:20:00,
2013-08-11 10:25:00,66.9,56.4,30.38,NNW,333,3.0,3.0,69,0.00,,,0.01,Wunderground v.1.15,2013-08-11 14:25:00,
2013-08-11 10:30:00,66.8,55.9,30.38,NNE,18,3.0,3.0,68,0.00,,,0.01,Wunderground v.1.15,2013-08-11 14:30:00,
2013-08-11 10:40:00,67.7,55.9,30.38,NNW,348,3.0,3.0,66,0.00,,,0.01,Wunderground v.1.15,2013-08-11 14:40:00,
2013-08-11 10:45:00,68.1,56.3,30.38,NNW,348,2.0,3.0,66,0.00,,,0.01,Wunderground v.1.15,2013-08-11 14:45:00,
2013-08-11 10:50:00,68.2,56.0,30.38,NNW,335,1.0,1.0,65,0.00,,,0.01,Wunderground v.1.15,2013-08-11 14:50:00,
2013-08-11 10:55:00,68.4,57.0,30.38,NW,310,1.0,2.0,67,0.00,,,0.01,Wunderground v.1.15,2013-08-11 14:55:00,
2013-08-11 11:00:00,68.3,56.5,30.38,NW,310,1.0,1.0,66,0.00,,,0.01,Wunderground v.1.15,2013-08-11 15:00:00,
2013-08-11 11:05:00,67.7,56.3,30.38,NW,310,2.0,2.0,67,0.00,,,0.01,Wunderground v.1.15,2013-08-11 15:05:00,
2013-08-11 11:10:00,67.5,56.6,30.37,NW,310,1.0,3.0,68,0.00,,,0.01,Wunderground v.1.15,2013-08-11 15:10:00,
2013-08-11 11:15:00,67.8,56.0,30.37,NW,310,1.0,3.0,66,0.00,,,0.01,Wunderground v.1.15,2013-08-11 15:15:00,
2013-08-11 11:25:00,68.6,56.4,30.38,NW,323,2.0,3.0,65,0.00,,,0.01,Wunderground v.1.15,2013-08-11 15:25:00,
2013-08-11 11:30:00,68.6,56.4,30.38,WNW,286,2.0,3.0,65,0.00,,,0.01,Wunderground v.1.15,2013-08-11 15:30:00,
2013-08-11 11:35:00,67.9,56.1,30.38,WNW,286,3.0,3.0,66,0.00,,,0.01,Wunderground v.1.15,2013-08-11 15:35:00,
2013-08-11 11:45:00,67.8,55.6,30.37,WNW,286,1.0,3.0,65,0.00,,,0.01,Wunderground v.1.15,2013-08-11 15:45:00,
2013-08-11 11:50:00,68.1,55.5,30.37,NNW,348,1.0,3.0,64,0.00,,,0.01,Wunderground v.1.15,2013-08-11 15:50:00,
2013-08-11 11:55:00,68.6,55.5,30.37,West,273,1.0,3.0,63,0.00,,,0.01,Wunderground v.1.15,2013-08-11 15:55:00,
2013-08-11 12:00:00,70.2,57.0,30.37,West,266,1.0,1.0,63,0.00,,,0.01,Wunderground v.1.15,2013-08-11 16:00:00,
2013-08-11 12:10:00,69.0,55.4,30.37,NNW,328,4.0,4.0,62,0.00,,,0.01,Wunderground v.1.15,2013-08-11 16:10:00,
2013-08-11 12:20:00,68.0,55.4,30.37,NW,317,4.0,4.0,64,0.00,,,0.01,Wunderground v.1.15,2013-08-11 16:20:00,
2013-08-11 12:25:00,68.6,55.5,30.37,NW,317,2.0,4.0,63,0.00,,,0.01,Wunderground v.1.15,2013-08-11 16:25:00,
2013-08-11 12:30:00,69.5,56.3,30.37,NW,305,2.0,5.0,63,0.00,,,0.01,Wunderground v.1.15,2013-08-11 16:30:00,
2013-08-11 12:35:00,68.8,55.7,30.37,NNW,330,3.0,5.0,63,0.00,,,0.01,Wunderground v.1.15,2013-08-11 16:35:00,
2013-08-11 12:40:00,68.6,55.9,30.36,NNW,330,4.0,4.0,64,0.00,,,0.01,Wunderground v.1.15,2013-08-11 16:40:00,
2013-08-11 12:50:00,68.6,55.5,30.36,WNW,300,5.0,5.0,63,0.00,,,0.01,Wunderground v.1.15,2013-08-11 16:50:00,
2013-08-11 12:55:00,69.1,55.5,30.36,NW,309,4.0,7.0,62,0.00,,,0.01,Wunderground v.1.15,2013-08-11 16:55:00,
2013-08-11 13:00:00,69.1,54.6,30.36,NNW,327,4.0,4.0,60,0.00,,,0.01,Wunderground v.1.15,2013-08-11 17:00:00,
2013-08-11 13:05:00,69.9,56.7,30.36,West,273,3.0,6.0,63,0.00,,,0.01,Wunderground v.1.15,2013-08-11 17:05:00,
2013-08-11 13:10:00,69.7,56.1,30.36,WNW,302,4.0,6.0,62,0.00,,,0.01,Wunderground v.1.15,2013-08-11 17:10:00,
2013-08-11 13:15:00,68.9,55.8,30.35,NW,321,6.0,6.0,63,0.00,,,0.01,Wunderground v.1.15,2013-08-11 17:15:00,
2013-08-11 13:25:00,70.1,55.6,30.35,NW,316,2.0,5.0,60,0.00,,,0.01,Wunderground v.1.15,2013-08-11 17:25:00,
2013-08-11 13:30:00,70.2,56.1,30.35,WNW,296,3.0,6.0,61,0.00,,,0.01,Wunderground v.1.15,2013-08-11 17:30:00,
2013-08-11 13:40:00,70.0,55.5,30.35,NNW,332,3.0,9.0,60,0.00,,,0.01,Wunderground v.1.15,2013-08-11 17:40:00,
2013-08-11 13:45:00,69.5,56.3,30.35,WNW,296,4.0,9.0,63,0.00,,,0.01,Wunderground v.1.15,2013-08-11 17:45:00,
2013-08-11 13:50:00,69.7,56.1,30.35,WNW,296,4.0,4.0,62,0.00,,,0.01,Wunderground v.1.15,2013-08-11 17:50:00,
2013-08-11 14:00:00,71.7,57.1,30.34,WSW,246,3.0,3.0,60,0.00,,,0.01,Wunderground v.1.15,2013-08-11 18:00:00,
2013-08-11 14:05:00,72.2,57.1,30.34,NW,309,2.0,5.0,59,0.00,,,0.01,Wunderground v.1.15,2013-08-11 18:05:00,
2013-08-11 14:15:00,70.8,54.8,30.34,WSW,246,4.0,5.0,57,0.00,,,0.01,Wunderground v.1.15,2013-08-11 18:15:00,
2013-08-11 14:20:00,72.0,55.9,30.34,WNW,288,4.0,6.0,57,0.00,,,0.01,Wunderground v.1.15,2013-08-11 18:20:00,
2013-08-11 14:25:00,71.6,55.6,30.34,WNW,294,4.0,6.0,57,0.00,,,0.01,Wunderground v.1.15,2013-08-11 18:25:00,
2013-08-11 14:35:00,72.6,56.0,30.34,WNW,295,5.0,5.0,56,0.00,,,0.01,Wunderground v.1.15,2013-08-11 18:35:00,
2013-08-11 14:40:00,72.5,56.4,30.34,West,266,5.0,6.0,57,0.00,,,0.01,Wunderground v.1.15,2013-08-11 18:40:00,
2013-08-11 14:45:00,72.8,55.7,30.34,WNW,301,5.0,6.0,55,0.00,,,0.01,Wunderground v.1.15,2013-08-11 18:45:00,
2013-08-11 14:55:00,72.6,55.0,30.34,WSW,254,5.0,5.0,54,0.00,,,0.01,Wunderground v.1.15,2013-08-11 18:55:00,
2013-08-11 15:00:00,72.5,56.4,30.34,WNW,303,4.0,5.0,57,0.00,,,0.01,Wunderground v.1.15,2013-08-11 19:00:00,
2013-08-11 15:10:00,72.7,57.1,30.34,West,281,5.0,6.0,58,0.00,,,0.01,Wunderground v.1.15,2013-08-11 19:10:00,
2013-08-11 15:20:00,72.8,54.7,30.33,WNW,285,5.0,5.0,53,0.00,,,0.01,Wunderground v.1.15,2013-08-11 19:20:00,
2013-08-11 15:25:00,72.0,54.9,30.33,NW,307,4.0,5.0,55,0.00,,,0.01,Wunderground v.1.15,2013-08-11 19:25:00,
2013-08-11 15:35:00,71.5,55.0,30.32,WNW,288,3.0,5.0,56,0.00,,,0.01,Wunderground v.1.15,2013-08-11 19:35:00,
2013-08-11 15:40:00,72.3,55.2,30.32,SW,226,2.0,5.0,55,0.00,,,0.01,Wunderground v.1.15,2013-08-11 19:40:00,
2013-08-11 15:50:00,73.7,55.5,30.32,SW,215,5.0,6.0,53,0.00,,,0.01,Wunderground v.1.15,2013-08-11 19:50:00,
2013-08-11 16:00:00,73.6,55.4,30.32,WNW,297,4.0,4.0,53,0.00,,,0.01,Wunderground v.1.15,2013-08-11 20:00:00,
2013-08-11 16:05:00,72.8,55.2,30.32,WNW,297,3.0,5.0,54,0.00,,,0.01,Wunderground v.1.15,2013-08-11 20:05:00,
2013-08-11 16:10:00,72.5,55.4,30.32,West,270,3.0,5.0,55,0.00,,,0.01,Wunderground v.1.15,2013-08-11 20:10:00,
2013-08-11 16:15:00,72.3,56.7,30.32,NW,313,3.0,5.0,58,0.00,,,0.01,Wunderground v.1.15,2013-08-11 20:15:00,
2013-08-11 16:25:00,71.9,55.8,30.32,WNW,295,3.0,5.0,57,0.00,,,0.01,Wunderground v.1.15,2013-08-11 20:25:00,
2013-08-11 16:30:00,72.2,56.1,30.32,WNW,295,3.0,5.0,57,0.00,,,0.01,Wunderground v.1.15,2013-08-11 20:30:00,
2013-08-11 16:35:00,72.6,56.0,30.31,WNW,288,2.0,5.0,56,0.00,,,0.01,Wunderground v.1.15,2013-08-11 20:35:00,
2013-08-11 16:40:00,73.4,55.2,30.31,WNW,288,2.0,2.0,53,0.00,,,0.01,Wunderground v.1.15,2013-08-11 20:40:00,
2013-08-11 16:45:00,73.7,55.5,30.31,WNW,296,3.0,6.0,53,0.00,,,0.01,Wunderground v.1.15,2013-08-11 20:45:00,
2013-08-11 16:55:00,73.1,56.5,30.31,WNW,294,2.0,5.0,56,0.00,,,0.01,Wunderground v.1.15,2013-08-11 20:55:00,
2013-08-11 17:00:00,73.5,55.8,30.31,NW,305,3.0,5.0,54,0.00,,,0.01,Wunderground v.1.15,2013-08-11 21:00:00,
2013-08-11 17:05:00,73.0,55.4,30.31,SW,236,4.0,5.0,54,0.00,,,0.01,Wunderground v.1.15,2013-08-11 21:05:00,
2013-08-11 17:10:00,73.2,55.6,30.31,WNW,286,5.0,5.0,54,0.00,,,0.01,Wunderground v.1.15,2013-08-11 21:10:00,
2013-08-11 17:20:00,72.0,54.9,30.30,West,263,5.0,5.0,55,0.00,,,0.01,Wunderground v.1.15,2013-08-11 21:20:00,
2013-08-11 17:25:00,72.2,55.6,30.31,West,263,3.0,5.0,56,0.00,,,0.01,Wunderground v.1.15,2013-08-11 21:25:00,
2013-08-11 17:30:00,72.6,56.0,30.31,WNW,288,3.0,5.0,56,0.00,,,0.01,Wunderground v.1.15,2013-08-11 21:30:00,
2013-08-11 17:45:00,73.0,55.4,30.30,West,279,5.0,5.0,54,0.00,,,0.01,Wunderground v.1.15,2013-08-11 21:45:00,
2013-08-11 17:50:00,72.9,55.3,30.30,WNW,284,4.0,4.0,54,0.00,,,0.01,Wunderground v.1.15,2013-08-11 21:50:00,
2013-08-11 17:55:00,72.8,56.2,30.30,WSW,238,4.0,7.0,56,0.00,,,0.01,Wunderground v.1.15,2013-08-11 21:55:00,
2013-08-11 18:00:00,72.5,56.4,30.30,WNW,300,3.0,3.0,57,0.00,,,0.01,Wunderground v.1.15,2013-08-11 22:00:00,
2013-08-11 18:05:00,72.5,56.4,30.30,WNW,300,3.0,3.0,57,0.00,,,0.01,Wunderground v.1.15,2013-08-11 22:05:00,
2013-08-11 18:15:00,73.0,55.9,30.30,WNW,301,3.0,3.0,55,0.00,,,0.01,Wunderground v.1.15,2013-08-11 22:15:00,
2013-08-11 18:20:00,73.0,56.4,30.30,WNW,297,4.0,4.0,56,0.00,,,0.01,Wunderground v.1.15,2013-08-11 22:20:00,
2013-08-11 18:25:00,72.5,55.4,30.30,WNW,295,4.0,4.0,55,0.00,,,0.01,Wunderground v.1.15,2013-08-11 22:25:00,
2013-08-11 18:30:00,72.5,56.9,30.30,WNW,291,4.0,4.0,58,0.00,,,0.01,Wunderground v.1.15,2013-08-11 22:30:00,
2013-08-11 18:35:00,72.3,55.7,30.30,NW,311,4.0,4.0,56,0.00,,,0.01,Wunderground v.1.15,2013-08-11 22:35:00,
2013-08-11 18:40:00,72.4,56.8,30.30,NW,311,3.0,3.0,58,0.00,,,0.01,Wunderground v.1.15,2013-08-11 22:40:00,
2013-08-11 18:50:00,72.5,57.4,30.30,NW,311,2.0,2.0,59,0.00,,,0.01,Wunderground v.1.15,2013-08-11 22:50:00,
2013-08-11 18:55:00,72.2,57.1,30.30,NW,311,3.0,3.0,59,0.00,,,0.01,Wunderground v.1.15,2013-08-11 22:55:00,
2013-08-11 19:00:00,71.9,56.3,30.29,NW,311,3.0,3.0,58,0.00,,,0.01,Wunderground v.1.15,2013-08-11 23:00:00,
2013-08-11 19:05:00,71.6,56.0,30.29,NW,311,3.0,11.0,58,0.00,,,0.01,Wunderground v.1.15,2013-08-11 23:05:00,
2013-08-11 19:10:00,71.4,56.8,30.29,NW,311,3.0,3.0,60,0.00,,,0.01,Wunderground v.1.15,2013-08-11 23:10:00,
2013-08-11 19:20:00,70.9,55.9,30.29,WNW,288,4.0,4.0,59,0.00,,,0.01,Wunderground v.1.15,2013-08-11 23:20:00,
2013-08-11 19:25:00,70.7,55.7,30.29,WNW,296,3.0,11.0,59,0.00,,,0.01,Wunderground v.1.15,2013-08-11 23:25:00,
2013-08-11 19:30:00,70.4,55.8,30.29,WNW,296,2.0,11.0,60,0.00,,,0.01,Wunderground v.1.15,2013-08-11 23:30:00,
2013-08-11 19:40:00,70.2,56.1,30.29,WNW,296,2.0,11.0,61,0.00,,,0.01,Wunderground v.1.15,2013-08-11 23:40:00,
2013-08-11 19:45:00,69.9,55.8,30.29,WNW,296,1.0,11.0,61,0.00,,,0.01,Wunderground v.1.15,2013-08-11 23:45:00,
2013-08-11 19:55:00,69.1,56.0,30.29,WNW,296,0.0,11.0,63,0.00,,,0.01,Wunderground v.1.15,2013-08-11 23:55:00,
2013-08-11 20:00:00,68.7,56.0,30.29,WNW,296,1.0,1.0,64,0.00,,,0.01,Wunderground v.1.15,2013-08-12 00:00:00,
2013-08-11 20:05:00,68.3,56.1,30.29,WNW,296,0.0,11.0,65,0.00,,,0.01,Wunderground v.1.15,2013-08-12 00:05:00,
2013-08-11 20:15:00,67.2,56.7,30.29,WNW,296,0.0,11.0,69,0.00,,,0.01,Wunderground v.1.15,2013-08-12 00:15:00,
2013-08-11 20:20:00,66.6,56.1,30.29,WNW,296,0.0,11.0,69,0.00,,,0.01,Wunderground v.1.15,2013-08-12 00:20:00,
2013-08-11 20:30:00,65.5,56.2,30.29,WNW,296,0.0,11.0,72,0.00,,,0.01,Wunderground v.1.15,2013-08-12 00:30:00,
2013-08-11 20:35:00,65.0,56.1,30.29,WNW,296,0.0,11.0,73,0.00,,,0.02,Wunderground v.1.15,2013-08-12 00:35:00,
2013-08-11 20:40:00,64.6,56.1,30.29,WNW,296,0.0,11.0,74,0.00,,,0.02,Wunderground v.1.15,2013-08-12 00:40:00,
2013-08-11 20:45:00,64.2,57.2,30.30,WNW,296,0.0,11.0,78,0.00,,,0.02,Wunderground v.1.15,2013-08-12 00:45:00,
2013-08-11 20:50:00,63.8,57.5,30.29,WNW,296,0.0,11.0,80,0.00,,,0.02,Wunderground v.1.15,2013-08-12 00:50:00,
2013-08-11 20:55:00,63.2,57.3,30.29,WNW,296,0.0,11.0,81,0.00,,,0.02,Wunderground v.1.15,2013-08-12 00:55:00,
2013-08-11 21:00:00,62.6,56.7,30.29,WNW,296,0.0,11.0,81,0.00,,,0.02,Wunderground v.1.15,2013-08-12 01:00:00,
2013-08-11 21:05:00,62.3,56.0,30.29,WNW,296,0.0,11.0,80,0.00,,,0.02,Wunderground v.1.15,2013-08-12 01:05:00,
2013-08-11 21:10:00,62.3,56.4,30.29,WNW,296,0.0,11.0,81,0.00,,,0.02,Wunderground v.1.15,2013-08-12 01:10:00,
2013-08-11 21:15:00,62.1,56.5,30.30,WNW,296,0.0,11.0,82,0.00,,,0.02,Wunderground v.1.15,2013-08-12 01:15:00,
2013-08-11 21:20:00,61.7,56.5,30.30,WNW,296,0.0,11.0,83,0.00,,,0.02,Wunderground v.1.15,2013-08-12 01:20:00,
2013-08-11 21:25:00,61.1,55.9,30.29,WNW,296,0.0,11.0,83,0.00,,,0.02,Wunderground v.1.15,2013-08-12 01:25:00,
2013-08-11 21:35:00,60.5,56.0,30.30,WNW,296,0.0,11.0,85,0.00,,,0.02,Wunderground v.1.15,2013-08-12 01:35:00,
2013-08-11 21:45:00,60.0,56.1,30.30,WNW,296,0.0,11.0,87,0.00,,,0.02,Wunderground v.1.15,2013-08-12 01:45:00,
2013-08-11 21:50:00,59.7,55.8,30.30,WNW,296,0.0,11.0,87,0.00,,,0.02,Wunderground v.1.15,2013-08-12 01:50:00,
2013-08-11 21:55:00,59.5,55.9,30.30,WNW,296,0.0,11.0,88,0.00,,,0.02,Wunderground v.1.15,2013-08-12 01:55:00,
2013-08-11 22:05:00,58.6,55.4,30.30,WNW,296,1.0,11.0,89,0.00,,,0.02,Wunderground v.1.15,2013-08-12 02:05:00,
2013-08-11 22:10:00,58.4,55.5,30.29,WNW,296,1.0,1.0,90,0.00,,,0.02,Wunderground v.1.15,2013-08-12 02:10:00,
2013-08-11 22:15:00,58.1,55.2,30.30,WNW,296,0.0,11.0,90,0.00,,,0.02,Wunderground v.1.15,2013-08-12 02:15:00,
2013-08-11 22:25:00,57.6,55.0,30.30,WNW,296,0.0,11.0,91,0.00,,,0.02,Wunderground v.1.15,2013-08-12 02:25:00,
2013-08-11 22:30:00,57.6,55.0,30.30,WNW,296,0.0,11.0,91,0.00,,,0.02,Wunderground v.1.15,2013-08-12 02:30:00,
2013-08-11 22:35:00,57.5,55.2,30.30,WNW,296,1.0,11.0,92,0.00,,,0.02,Wunderground v.1.15,2013-08-12 02:35:00,
2013-08-11 22:55:00,57.8,55.8,30.30,WNW,296,1.0,11.0,93,0.00,,,0.02,Wunderground v.1.15,2013-08-12 02:55:00,
2013-08-11 23:00:00,57.8,55.8,30.30,WNW,296,1.0,11.0,93,0.00,,,0.02,Wunderground v.1.15,2013-08-12 03:00:00,
2013-08-11 23:05:00,58.1,56.1,30.30,WNW,296,1.0,11.0,93,0.00,,,0.02,Wunderground v.1.15,2013-08-12 03:05:00,
2013-08-11 23:10:00,58.2,56.2,30.30,WNW,296,1.0,1.0,93,0.00,,,0.02,Wunderground v.1.15,2013-08-12 03:10:00,
2013-08-11 23:15:00,58.4,56.4,30.30,WNW,296,1.0,11.0,93,0.00,,,0.02,Wunderground v.1.15,2013-08-12 03:15:00,
2013-08-11 23:25:00,58.9,56.6,30.31,SW,228,1.0,11.0,92,0.00,,,0.02,Wunderground v.1.15,2013-08-12 03:25:00,
2013-08-11 23:30:00,59.1,56.8,30.31,SW,228,1.0,1.0,92,0.00,,,0.02,Wunderground v.1.15,2013-08-12 03:30:00,
2013-08-11 23:40:00,59.4,56.8,30.31,SW,228,1.0,11.0,91,0.00,,,0.02,Wunderground v.1.15,2013-08-12 03:40:00,
2013-08-11 23:45:00,59.5,56.9,30.30,SSW,210,2.0,11.0,91,0.00,,,0.02,Wunderground v.1.15,2013-08-12 03:45:00,
2013-08-11 23:50:00,59.6,57.0,30.31,SSW,210,2.0,2.0,91,0.00,,,0.02,Wunderground v.1.15,2013-08-12 03:50:00,